sensor_id;sensor_type;location;lat;lon;timestamp;pressure;altitude;pressure_sealevel;temperature;humidity
71907;BME280;59781;52.090;5.030;2023-06-05T00:01:43;102347.66;;;12.18;100.00
71907;BME280;59781;52.090;5.030;2023-06-05T00:04:09;102347.09;;;12.24;100.00
71907;BME280;59781;52.090;5.030;2023-06-05T00:06:35;102335.72;;;12.30;100.00
71907;BME280;59781;52.090;5.030;2023-06-05T00:09:03;102345.00;;;12.09;100.00
71907;BME280;59781;52.090;5.030;2023-06-05T00:11:30;102344.88;;;12.00;100.00
71907;BME280;59781;52.090;5.030;2023-06-05T00:13:56;102347.28;;;12.13;100.00
71907;BME280;59781;52.090;5.030;2023-06-05T00:16:22;102336.31;;;12.24;100.00
71907;BME280;59781;52.090;5.030;2023-06-05T00:18:47;102342.44;;;11.97;100.00
71907;BME280;59781;52.090;5.030;2023-06-05T00:21:13;102341.88;;;12.13;100.00
71907;BME280;59781;52.090;5.030;2023-06-05T00:23:41;102327.25;;;11.96;100.00
71907;BME280;59781;52.090;5.030;2023-06-05T00:26:07;102337.63;;;12.01;100.00
71907;BME280;59781;52.090;5.030;2023-06-05T00:28:33;102332.50;;;11.88;100.00
71907;BME280;59781;52.090;5.030;2023-06-05T00:30:59;102334.94;;;12.01;100.00
71907;BME280;59781;52.090;5.030;2023-06-05T00:33:26;102331.59;;;12.26;100.00
71907;BME280;59781;52.090;5.030;2023-06-05T00:35:54;102340.19;;;12.02;100.00
71907;BME280;59781;52.090;5.030;2023-06-05T00:38:19;102337.63;;;11.91;100.00
71907;BME280;59781;52.090;5.030;2023-06-05T00:40:46;102334.94;;;11.91;100.00
71907;BME280;59781;52.090;5.030;2023-06-05T00:43:11;102335.34;;;11.96;100.00
71907;BME280;59781;52.090;5.030;2023-06-05T00:45:37;102341.34;;;11.81;100.00
71907;BME280;59781;52.090;5.030;2023-06-05T00:48:03;102337.72;;;12.09;100.00
71907;BME280;59781;52.090;5.030;2023-06-05T00:50:32;102341.41;;;11.79;100.00
71907;BME280;59781;52.090;5.030;2023-06-05T00:53:01;102336.06;;;11.89;100.00
71907;BME280;59781;52.090;5.030;2023-06-05T00:55:29;102336.19;;;11.87;100.00
71907;BME280;59781;52.090;5.030;2023-06-05T00:57:56;102336.03;;;11.79;100.00
71907;BME280;59781;52.090;5.030;2023-06-05T01:00:22;102344.56;;;11.65;100.00
71907;BME280;59781;52.090;5.030;2023-06-05T01:02:49;102339.88;;;11.67;100.00
71907;BME280;59781;52.090;5.030;2023-06-05T01:05:20;102335.50;;;11.85;100.00
71907;BME280;59781;52.090;5.030;2023-06-05T01:07:46;102335.19;;;11.69;100.00
71907;BME280;59781;52.090;5.030;2023-06-05T01:10:15;102335.31;;;11.67;100.00
71907;BME280;59781;52.090;5.030;2023-06-05T01:13:06;102339.59;;;11.51;100.00
71907;BME280;59781;52.090;5.030;2023-06-05T01:15:43;102334.47;;;11.47;100.00
71907;BME280;59781;52.090;5.030;2023-06-05T01:18:10;102330.34;;;11.53;100.00
71907;BME280;59781;52.090;5.030;2023-06-05T01:20:38;102327.06;;;11.69;100.00
71907;BME280;59781;52.090;5.030;2023-06-05T01:23:08;102329.50;;;11.62;100.00
71907;BME280;59781;52.090;5.030;2023-06-05T01:25:35;102334.13;;;11.12;100.00
71907;BME280;59781;52.090;5.030;2023-06-05T01:28:10;102335.72;;;11.24;100.00
71907;BME280;59781;52.090;5.030;2023-06-05T01:31:01;102337.44;;;11.35;100.00
71907;BME280;59781;52.090;5.030;2023-06-05T01:33:32;102326.63;;;11.25;100.00
71907;BME280;59781;52.090;5.030;2023-06-05T01:36:11;102322.94;;;11.26;100.00
71907;BME280;59781;52.090;5.030;2023-06-05T01:38:41;102336.00;;;11.31;100.00
71907;BME280;59781;52.090;5.030;2023-06-05T01:41:10;102319.66;;;11.23;100.00
71907;BME280;59781;52.090;5.030;2023-06-05T01:43:37;102320.78;;;11.20;100.00
71907;BME280;59781;52.090;5.030;2023-06-05T01:46:05;102322.09;;;11.35;100.00
71907;BME280;59781;52.090;5.030;2023-06-05T01:48:33;102321.78;;;11.29;100.00
71907;BME280;59781;52.090;5.030;2023-06-05T01:51:01;102322.59;;;11.10;100.00
71907;BME280;59781;52.090;5.030;2023-06-05T01:53:29;102318.94;;;11.30;100.00
71907;BME280;59781;52.090;5.030;2023-06-05T01:55:55;102314.72;;;11.37;100.00
71907;BME280;59781;52.090;5.030;2023-06-05T01:58:26;102312.09;;;11.07;100.00
71907;BME280;59781;52.090;5.030;2023-06-05T02:00:53;102316.09;;;11.03;100.00
71907;BME280;59781;52.090;5.030;2023-06-05T02:03:20;102317.75;;;10.94;100.00
71907;BME280;59781;52.090;5.030;2023-06-05T02:05:46;102310.41;;;11.06;100.00
71907;BME280;59781;52.090;5.030;2023-06-05T02:08:12;102308.00;;;11.03;100.00
71907;BME280;59781;52.090;5.030;2023-06-05T02:10:42;102313.25;;;11.04;100.00
71907;BME280;59781;52.090;5.030;2023-06-05T02:13:10;102306.56;;;11.08;100.00
71907;BME280;59781;52.090;5.030;2023-06-05T02:15:37;102308.25;;;11.00;100.00
71907;BME280;59781;52.090;5.030;2023-06-05T02:18:03;102309.63;;;10.84;100.00
71907;BME280;59781;52.090;5.030;2023-06-05T02:20:31;102304.25;;;10.84;100.00
71907;BME280;59781;52.090;5.030;2023-06-05T02:22:57;102306.56;;;11.08;100.00
71907;BME280;59781;52.090;5.030;2023-06-05T02:25:24;102306.44;;;11.10;100.00
71907;BME280;59781;52.090;5.030;2023-06-05T02:27:54;102293.78;;;11.01;100.00
71907;BME280;59781;52.090;5.030;2023-06-05T02:30:21;102297.34;;;10.91;100.00
71907;BME280;59781;52.090;5.030;2023-06-05T02:32:47;102286.97;;;10.97;100.00
71907;BME280;59781;52.090;5.030;2023-06-05T02:35:22;102296.78;;;11.07;100.00
71907;BME280;59781;52.090;5.030;2023-06-05T02:37:51;102294.34;;;10.95;100.00
71907;BME280;59781;52.090;5.030;2023-06-05T02:40:18;102291.41;;;10.67;100.00
71907;BME280;59781;52.090;5.030;2023-06-05T02:42:46;102301.91;;;10.70;100.00
71907;BME280;59781;52.090;5.030;2023-06-05T02:45:12;102303.88;;;11.08;100.00
71907;BME280;59781;52.090;5.030;2023-06-05T02:47:37;102297.34;;;11.01;100.00
71907;BME280;59781;52.090;5.030;2023-06-05T02:50:05;102300.47;;;11.06;100.00
71907;BME280;59781;52.090;5.030;2023-06-05T02:52:35;102297.22;;;11.12;100.00
71907;BME280;59781;52.090;5.030;2023-06-05T02:55:09;102291.03;;;10.81;100.00
71907;BME280;59781;52.090;5.030;2023-06-05T02:57:35;102295.84;;;10.78;100.00
71907;BME280;59781;52.090;5.030;2023-06-05T03:00:11;102293.88;;;10.89;100.00
71907;BME280;59781;52.090;5.030;2023-06-05T03:02:43;102292.75;;;10.82;100.00
71907;BME280;59781;52.090;5.030;2023-06-05T03:05:15;102294.44;;;10.74;100.00
71907;BME280;59781;52.090;5.030;2023-06-05T03:07:43;102290.47;;;10.78;100.00
71907;BME280;59781;52.090;5.030;2023-06-05T03:10:09;102287.63;;;10.79;100.00
71907;BME280;59781;52.090;5.030;2023-06-05T03:12:35;102287.06;;;10.76;100.00
71907;BME280;59781;52.090;5.030;2023-06-05T03:15:00;102278.47;;;11.11;100.00
71907;BME280;59781;52.090;5.030;2023-06-05T03:17:27;102287.84;;;10.57;100.00
71907;BME280;59781;52.090;5.030;2023-06-05T03:19:55;102277.38;;;10.63;100.00
71907;BME280;59781;52.090;5.030;2023-06-05T03:22:21;102276.97;;;10.68;100.00
71907;BME280;59781;52.090;5.030;2023-06-05T03:24:47;102276.13;;;10.77;100.00
71907;BME280;59781;52.090;5.030;2023-06-05T03:27:13;102273.19;;;10.90;100.00
71907;BME280;59781;52.090;5.030;2023-06-05T03:29:39;102272.84;;;10.64;100.00
71907;BME280;59781;52.090;5.030;2023-06-05T03:32:05;102274.78;;;10.93;100.00
71907;BME280;59781;52.090;5.030;2023-06-05T03:34:32;102277.09;;;10.67;100.00
71907;BME280;59781;52.090;5.030;2023-06-05T03:37:02;102273.44;;;10.77;100.00
71907;BME280;59781;52.090;5.030;2023-06-05T03:39:29;102281.00;;;10.83;100.00
71907;BME280;59781;52.090;5.030;2023-06-05T03:41:55;102270.34;;;10.82;100.00
71907;BME280;59781;52.090;5.030;2023-06-05T03:44:24;102285.56;;;11.02;100.00
71907;BME280;59781;52.090;5.030;2023-06-05T03:46:50;102277.56;;;10.91;100.00
71907;BME280;59781;52.090;5.030;2023-06-05T03:49:16;102275.22;;;11.17;100.00
71907;BME280;59781;52.090;5.030;2023-06-05T03:51:42;102271.69;;;11.16;100.00
71907;BME280;59781;52.090;5.030;2023-06-05T03:54:10;102273.50;;;11.06;100.00
71907;BME280;59781;52.090;5.030;2023-06-05T03:56:38;102270.09;;;11.04;100.00
71907;BME280;59781;52.090;5.030;2023-06-05T03:59:09;102273.75;;;10.84;100.00
71907;BME280;59781;52.090;5.030;2023-06-05T04:01:45;102270.97;;;11.05;100.00
71907;BME280;59781;52.090;5.030;2023-06-05T04:04:12;102281.59;;;11.06;100.00
71907;BME280;59781;52.090;5.030;2023-06-05T04:06:38;102279.69;;;10.78;100.00
71907;BME280;59781;52.090;5.030;2023-06-05T04:09:06;102287.22;;;10.84;100.00
71907;BME280;59781;52.090;5.030;2023-06-05T04:11:42;102283.94;;;10.80;100.00
71907;BME280;59781;52.090;5.030;2023-06-05T04:14:11;102280.72;;;10.96;100.00
71907;BME280;59781;52.090;5.030;2023-06-05T04:16:38;102280.03;;;11.04;100.00
71907;BME280;59781;52.090;5.030;2023-06-05T04:19:06;102273.81;;;11.13;100.00
71907;BME280;59781;52.090;5.030;2023-06-05T04:21:39;102288.84;;;11.06;100.00
71907;BME280;59781;52.090;5.030;2023-06-05T04:24:07;102279.16;;;10.94;100.00
71907;BME280;59781;52.090;5.030;2023-06-05T04:26:40;102283.00;;;11.10;100.00
71907;BME280;59781;52.090;5.030;2023-06-05T04:29:09;102281.63;;;11.16;100.00
71907;BME280;59781;52.090;5.030;2023-06-05T04:31:41;102286.47;;;11.51;100.00
71907;BME280;59781;52.090;5.030;2023-06-05T04:34:07;102288.59;;;11.38;100.00
71907;BME280;59781;52.090;5.030;2023-06-05T04:36:34;102279.94;;;11.44;100.00
71907;BME280;59781;52.090;5.030;2023-06-05T04:39:01;102287.59;;;11.39;100.00
71907;BME280;59781;52.090;5.030;2023-06-05T04:41:29;102296.09;;;11.25;100.00
71907;BME280;59781;52.090;5.030;2023-06-05T04:43:59;102287.59;;;11.39;100.00
71907;BME280;59781;52.090;5.030;2023-06-05T04:46:26;102290.72;;;11.34;100.00
71907;BME280;59781;52.090;5.030;2023-06-05T04:48:53;102291.72;;;11.33;100.00
71907;BME280;59781;52.090;5.030;2023-06-05T04:51:23;102297.13;;;11.72;100.00
71907;BME280;59781;52.090;5.030;2023-06-05T04:53:50;102292.47;;;11.84;100.00
71907;BME280;59781;52.090;5.030;2023-06-05T04:56:20;102294.13;;;12.04;100.00
71907;BME280;59781;52.090;5.030;2023-06-05T04:58:47;102308.19;;;11.98;100.00
71907;BME280;59781;52.090;5.030;2023-06-05T05:01:13;102303.53;;;11.90;100.00
71907;BME280;59781;52.090;5.030;2023-06-05T05:03:39;102303.56;;;11.81;100.00
71907;BME280;59781;52.090;5.030;2023-06-05T05:06:08;102302.53;;;12.01;100.00
71907;BME280;59781;52.090;5.030;2023-06-05T05:08:36;102299.09;;;11.89;100.00
71907;BME280;59781;52.090;5.030;2023-06-05T05:11:02;102295.25;;;12.11;100.00
71907;BME280;59781;52.090;5.030;2023-06-05T05:13:28;102305.22;;;12.11;100.00
71907;BME280;59781;52.090;5.030;2023-06-05T05:15:55;102299.59;;;12.31;100.00
71907;BME280;59781;52.090;5.030;2023-06-05T05:18:20;102294.50;;;12.19;100.00
71907;BME280;59781;52.090;5.030;2023-06-05T05:20:46;102299.22;;;12.17;100.00
71907;BME280;59781;52.090;5.030;2023-06-05T05:23:13;102298.94;;;12.57;100.00
71907;BME280;59781;52.090;5.030;2023-06-05T05:25:40;102298.00;;;12.76;100.00
71907;BME280;59781;52.090;5.030;2023-06-05T05:28:06;102295.28;;;13.31;100.00
71907;BME280;59781;52.090;5.030;2023-06-05T05:30:32;102294.91;;;13.79;100.00
71907;BME280;59781;52.090;5.030;2023-06-05T05:32:59;102297.53;;;13.71;100.00
71907;BME280;59781;52.090;5.030;2023-06-05T05:35:25;102301.00;;;13.45;100.00
71907;BME280;59781;52.090;5.030;2023-06-05T05:37:51;102296.06;;;13.41;100.00
71907;BME280;59781;52.090;5.030;2023-06-05T05:40:17;102298.31;;;13.63;100.00
71907;BME280;59781;52.090;5.030;2023-06-05T05:42:43;102300.31;;;13.43;100.00
71907;BME280;59781;52.090;5.030;2023-06-05T05:45:10;102299.53;;;13.87;100.00
71907;BME280;59781;52.090;5.030;2023-06-05T05:47:35;102294.22;;;14.03;100.00
71907;BME280;59781;52.090;5.030;2023-06-05T05:50:01;102300.75;;;13.92;100.00
71907;BME280;59781;52.090;5.030;2023-06-05T05:52:27;102301.59;;;13.93;100.00
71907;BME280;59781;52.090;5.030;2023-06-05T05:54:52;102300.38;;;13.87;100.00
71907;BME280;59781;52.090;5.030;2023-06-05T05:57:18;102316.72;;;13.60;100.00
71907;BME280;59781;52.090;5.030;2023-06-05T05:59:44;102309.44;;;13.42;100.00
71907;BME280;59781;52.090;5.030;2023-06-05T06:02:10;102311.78;;;13.37;100.00
71907;BME280;59781;52.090;5.030;2023-06-05T06:04:38;102298.91;;;13.75;100.00
71907;BME280;59781;52.090;5.030;2023-06-05T06:07:04;102302.28;;;13.95;100.00
71907;BME280;59781;52.090;5.030;2023-06-05T06:09:31;102302.25;;;13.69;100.00
71907;BME280;59781;52.090;5.030;2023-06-05T06:11:58;102297.44;;;13.63;100.00
71907;BME280;59781;52.090;5.030;2023-06-05T06:14:28;102303.25;;;13.32;100.00
71907;BME280;59781;52.090;5.030;2023-06-05T06:16:53;102304.44;;;14.09;100.00
71907;BME280;59781;52.090;5.030;2023-06-05T06:19:21;102303.22;;;14.29;100.00
71907;BME280;59781;52.090;5.030;2023-06-05T06:21:49;102299.97;;;14.52;100.00
71907;BME280;59781;52.090;5.030;2023-06-05T06:24:17;102299.69;;;14.63;100.00
71907;BME280;59781;52.090;5.030;2023-06-05T06:26:46;102312.56;;;15.70;100.00
71907;BME280;59781;52.090;5.030;2023-06-05T06:29:20;102305.91;;;15.48;100.00
71907;BME280;59781;52.090;5.030;2023-06-05T06:31:46;102309.84;;;16.11;100.00
71907;BME280;59781;52.090;5.030;2023-06-05T06:34:12;102306.97;;;15.80;100.00
71907;BME280;59781;52.090;5.030;2023-06-05T06:36:38;102309.00;;;16.02;100.00
71907;BME280;59781;52.090;5.030;2023-06-05T06:39:08;102303.78;;;16.64;100.00
71907;BME280;59781;52.090;5.030;2023-06-05T06:41:34;102299.75;;;16.99;100.00
71907;BME280;59781;52.090;5.030;2023-06-05T06:44:01;102302.25;;;16.61;100.00
71907;BME280;59781;52.090;5.030;2023-06-05T06:46:26;102299.63;;;16.29;100.00
71907;BME280;59781;52.090;5.030;2023-06-05T06:48:52;102298.59;;;17.25;100.00
71907;BME280;59781;52.090;5.030;2023-06-05T06:51:18;102306.47;;;16.80;100.00
71907;BME280;59781;52.090;5.030;2023-06-05T06:53:44;102295.47;;;17.36;100.00
71907;BME280;59781;52.090;5.030;2023-06-05T06:56:10;102297.16;;;17.60;100.00
71907;BME280;59781;52.090;5.030;2023-06-05T06:58:36;102291.41;;;17.55;100.00
71907;BME280;59781;52.090;5.030;2023-06-05T07:01:02;102307.66;;;17.40;100.00
71907;BME280;59781;52.090;5.030;2023-06-05T07:03:28;102304.59;;;17.66;100.00
71907;BME280;59781;52.090;5.030;2023-06-05T07:05:54;102312.72;;;17.51;100.00
71907;BME280;59781;52.090;5.030;2023-06-05T07:08:20;102308.81;;;18.14;100.00
71907;BME280;59781;52.090;5.030;2023-06-05T07:10:46;102317.94;;;17.61;100.00
71907;BME280;59781;52.090;5.030;2023-06-05T07:13:12;102305.44;;;17.89;100.00
71907;BME280;59781;52.090;5.030;2023-06-05T07:15:37;102315.63;;;18.48;100.00
71907;BME280;59781;52.090;5.030;2023-06-05T07:18:03;102315.09;;;18.00;100.00
71907;BME280;59781;52.090;5.030;2023-06-05T07:20:29;102310.75;;;18.43;100.00
71907;BME280;59781;52.090;5.030;2023-06-05T07:22:54;102314.28;;;18.14;100.00
71907;BME280;59781;52.090;5.030;2023-06-05T07:25:20;102311.31;;;18.53;100.00
71907;BME280;59781;52.090;5.030;2023-06-05T07:27:49;102309.31;;;18.47;100.00
71907;BME280;59781;52.090;5.030;2023-06-05T07:30:18;102309.53;;;18.90;98.33
71907;BME280;59781;52.090;5.030;2023-06-05T07:32:44;102309.38;;;17.10;100.00
71907;BME280;59781;52.090;5.030;2023-06-05T07:35:10;102307.41;;;18.18;100.00
71907;BME280;59781;52.090;5.030;2023-06-05T07:37:36;102306.78;;;18.31;100.00
71907;BME280;59781;52.090;5.030;2023-06-05T07:40:02;102303.47;;;17.83;100.00
71907;BME280;59781;52.090;5.030;2023-06-05T07:42:28;102307.13;;;18.28;100.00
71907;BME280;59781;52.090;5.030;2023-06-05T07:44:53;102315.97;;;18.15;100.00
71907;BME280;59781;52.090;5.030;2023-06-05T07:47:19;102298.03;;;17.83;100.00
71907;BME280;59781;52.090;5.030;2023-06-05T07:49:56;102296.94;;;18.89;100.00
71907;BME280;59781;52.090;5.030;2023-06-05T07:52:27;102296.38;;;19.51;94.65
71907;BME280;59781;52.090;5.030;2023-06-05T07:54:53;102302.75;;;19.01;96.40
71907;BME280;59781;52.090;5.030;2023-06-05T07:57:18;102299.91;;;19.88;93.52
71907;BME280;59781;52.090;5.030;2023-06-05T07:59:45;102306.63;;;20.13;90.38
71907;BME280;59781;52.090;5.030;2023-06-05T08:02:12;102302.38;;;19.83;91.89
71907;BME280;59781;52.090;5.030;2023-06-05T08:04:37;102296.25;;;19.02;99.52
71907;BME280;59781;52.090;5.030;2023-06-05T08:07:04;102306.78;;;19.05;99.13
71907;BME280;59781;52.090;5.030;2023-06-05T08:09:30;102304.00;;;18.69;100.00
71907;BME280;59781;52.090;5.030;2023-06-05T08:11:56;102303.09;;;18.24;100.00
71907;BME280;59781;52.090;5.030;2023-06-05T08:14:22;102301.75;;;18.72;100.00
71907;BME280;59781;52.090;5.030;2023-06-05T08:16:47;102292.13;;;18.91;100.00
71907;BME280;59781;52.090;5.030;2023-06-05T08:19:13;102292.41;;;19.96;95.42
71907;BME280;59781;52.090;5.030;2023-06-05T08:21:39;102289.66;;;20.87;91.14
71907;BME280;59781;52.090;5.030;2023-06-05T08:24:05;102295.13;;;21.48;81.92
71907;BME280;59781;52.090;5.030;2023-06-05T08:26:30;102280.31;;;20.40;84.03
71907;BME280;59781;52.090;5.030;2023-06-05T08:28:56;102281.06;;;20.55;87.40
71907;BME280;59781;52.090;5.030;2023-06-05T08:31:22;102286.22;;;21.26;82.01
71907;BME280;59781;52.090;5.030;2023-06-05T08:33:48;102280.38;;;21.56;80.18
71907;BME280;59781;52.090;5.030;2023-06-05T08:36:15;102286.94;;;21.68;80.11
71907;BME280;59781;52.090;5.030;2023-06-05T08:38:41;102277.03;;;21.73;79.82
71907;BME280;59781;52.090;5.030;2023-06-05T08:41:07;102279.53;;;21.48;80.05
71907;BME280;59781;52.090;5.030;2023-06-05T08:43:39;102273.00;;;21.76;79.55
71907;BME280;59781;52.090;5.030;2023-06-05T08:46:09;102276.16;;;21.80;78.87
71907;BME280;59781;52.090;5.030;2023-06-05T08:48:41;102274.91;;;21.75;76.54
71907;BME280;59781;52.090;5.030;2023-06-05T08:51:16;102277.41;;;21.37;81.15
71907;BME280;59781;52.090;5.030;2023-06-05T08:53:51;102277.19;;;21.52;80.36
71907;BME280;59781;52.090;5.030;2023-06-05T08:56:22;102269.91;;;22.70;74.49
71907;BME280;59781;52.090;5.030;2023-06-05T08:58:49;102274.72;;;22.23;77.12
71907;BME280;59781;52.090;5.030;2023-06-05T09:01:17;102276.38;;;21.98;73.93
71907;BME280;59781;52.090;5.030;2023-06-05T09:03:42;102274.91;;;21.95;74.32
71907;BME280;59781;52.090;5.030;2023-06-05T09:06:10;102263.50;;;23.03;71.87
71907;BME280;59781;52.090;5.030;2023-06-05T09:08:36;102269.28;;;22.75;75.09
71907;BME280;59781;52.090;5.030;2023-06-05T09:13:47;102270.19;;;23.13;74.51
71907;BME280;59781;52.090;5.030;2023-06-05T09:16:14;102273.06;;;22.87;70.13
71907;BME280;59781;52.090;5.030;2023-06-05T09:18:56;102258.84;;;23.03;71.75
71907;BME280;59781;52.090;5.030;2023-06-05T09:21:24;102260.16;;;23.32;73.70
71907;BME280;59781;52.090;5.030;2023-06-05T09:24:16;102254.03;;;23.87;73.09
71907;BME280;59781;52.090;5.030;2023-06-05T09:26:57;102256.34;;;23.65;70.14
71907;BME280;59781;52.090;5.030;2023-06-05T09:29:35;102261.13;;;24.01;70.23
71907;BME280;59781;52.090;5.030;2023-06-05T09:32:08;102261.06;;;24.26;68.07
71907;BME280;59781;52.090;5.030;2023-06-05T09:34:41;102266.53;;;23.89;67.15
71907;BME280;59781;52.090;5.030;2023-06-05T09:37:09;102254.78;;;23.44;65.43
71907;BME280;59781;52.090;5.030;2023-06-05T09:39:40;102254.69;;;23.26;70.49
71907;BME280;59781;52.090;5.030;2023-06-05T09:42:11;102251.63;;;23.72;68.81
71907;BME280;59781;52.090;5.030;2023-06-05T09:44:37;102253.94;;;23.12;68.77
71907;BME280;59781;52.090;5.030;2023-06-05T09:47:05;102255.06;;;23.29;69.53
71907;BME280;59781;52.090;5.030;2023-06-05T09:52:09;102246.88;;;24.29;69.22
71907;BME280;59781;52.090;5.030;2023-06-05T09:54:39;102239.84;;;22.95;68.23
71907;BME280;59781;52.090;5.030;2023-06-05T09:57:08;102240.22;;;23.93;72.83
71907;BME280;59781;52.090;5.030;2023-06-05T09:59:45;102249.03;;;24.02;70.26
71907;BME280;59781;52.090;5.030;2023-06-05T10:02:13;102244.00;;;24.17;69.44
71907;BME280;59781;52.090;5.030;2023-06-05T10:04:59;102244.72;;;23.88;67.50
71907;BME280;59781;52.090;5.030;2023-06-05T10:07:32;102243.88;;;23.87;72.04
71907;BME280;59781;52.090;5.030;2023-06-05T10:10:01;102245.97;;;23.92;69.62
71907;BME280;59781;52.090;5.030;2023-06-05T10:12:30;102243.44;;;24.09;70.17
71907;BME280;59781;52.090;5.030;2023-06-05T10:14:57;102241.22;;;24.60;70.54
71907;BME280;59781;52.090;5.030;2023-06-05T10:17:23;102234.13;;;24.53;66.33
71907;BME280;59781;52.090;5.030;2023-06-05T10:19:50;102243.44;;;23.65;70.46
71907;BME280;59781;52.090;5.030;2023-06-05T10:22:17;102237.47;;;23.93;68.87
71907;BME280;59781;52.090;5.030;2023-06-05T10:24:48;102238.81;;;24.27;72.46
71907;BME280;59781;52.090;5.030;2023-06-05T10:33:11;102236.34;;;24.44;75.15
71907;BME280;59781;52.090;5.030;2023-06-05T10:36:10;102229.41;;;24.90;69.45
71907;BME280;59781;52.090;5.030;2023-06-05T10:38:47;102229.09;;;24.98;68.83
71907;BME280;59781;52.090;5.030;2023-06-05T10:41:13;102224.84;;;24.29;69.42
71907;BME280;59781;52.090;5.030;2023-06-05T10:43:48;102229.84;;;24.39;70.80
71907;BME280;59781;52.090;5.030;2023-06-05T10:51:42;102234.16;;;24.83;68.26
71907;BME280;59781;52.090;5.030;2023-06-05T10:59:45;102223.03;;;24.41;67.73
71907;BME280;59781;52.090;5.030;2023-06-05T11:02:29;102227.31;;;23.94;67.55
71907;BME280;59781;52.090;5.030;2023-06-05T11:07:28;102235.03;;;24.95;68.89
71907;BME280;59781;52.090;5.030;2023-06-05T11:10:11;102227.56;;;25.02;66.61
71907;BME280;59781;52.090;5.030;2023-06-05T11:17:46;102230.06;;;23.37;69.90
71907;BME280;59781;52.090;5.030;2023-06-05T11:27:51;102213.13;;;24.70;65.12
71907;BME280;59781;52.090;5.030;2023-06-05T11:30:20;102217.09;;;24.74;67.58
71907;BME280;59781;52.090;5.030;2023-06-05T11:32:48;102216.75;;;25.01;64.78
71907;BME280;59781;52.090;5.030;2023-06-05T11:35:21;102216.38;;;24.49;67.32
71907;BME280;59781;52.090;5.030;2023-06-05T11:37:47;102211.75;;;24.79;66.27
71907;BME280;59781;52.090;5.030;2023-06-05T11:40:24;102218.69;;;24.82;65.60
71907;BME280;59781;52.090;5.030;2023-06-05T11:42:50;102205.44;;;25.09;63.64
71907;BME280;59781;52.090;5.030;2023-06-05T11:45:16;102202.91;;;24.89;63.89
71907;BME280;59781;52.090;5.030;2023-06-05T11:47:41;102211.66;;;24.68;67.29
71907;BME280;59781;52.090;5.030;2023-06-05T11:50:08;102204.00;;;24.15;67.46
71907;BME280;59781;52.090;5.030;2023-06-05T11:52:36;102201.38;;;24.93;66.56
71907;BME280;59781;52.090;5.030;2023-06-05T11:55:20;102198.97;;;24.30;67.49
71907;BME280;59781;52.090;5.030;2023-06-05T11:57:47;102198.69;;;24.86;67.15
71907;BME280;59781;52.090;5.030;2023-06-05T12:00:23;102203.91;;;24.76;67.15
71907;BME280;59781;52.090;5.030;2023-06-05T12:02:51;102191.94;;;25.01;64.61
71907;BME280;59781;52.090;5.030;2023-06-05T12:05:17;102199.28;;;25.60;64.13
71907;BME280;59781;52.090;5.030;2023-06-05T12:07:43;102204.00;;;25.18;62.83
71907;BME280;59781;52.090;5.030;2023-06-05T12:10:09;102188.19;;;25.25;62.01
71907;BME280;59781;52.090;5.030;2023-06-05T12:12:49;102201.44;;;24.56;65.38
71907;BME280;59781;52.090;5.030;2023-06-05T12:15:17;102201.91;;;25.02;68.24
71907;BME280;59781;52.090;5.030;2023-06-05T12:17:51;102195.84;;;25.11;63.64
71907;BME280;59781;52.090;5.030;2023-06-05T12:20:21;102196.41;;;24.83;66.19
71907;BME280;59781;52.090;5.030;2023-06-05T12:22:48;102191.88;;;24.22;64.66
71907;BME280;59781;52.090;5.030;2023-06-05T12:25:23;102197.59;;;24.57;68.93
71907;BME280;59781;52.090;5.030;2023-06-05T12:27:49;102187.13;;;24.29;65.72
71907;BME280;59781;52.090;5.030;2023-06-05T12:30:16;102195.50;;;24.41;65.83
71907;BME280;59781;52.090;5.030;2023-06-05T12:32:43;102194.66;;;24.89;65.42
71907;BME280;59781;52.090;5.030;2023-06-05T12:35:23;102189.94;;;25.50;66.01
71907;BME280;59781;52.090;5.030;2023-06-05T12:37:59;102187.41;;;25.06;64.04
71907;BME280;59781;52.090;5.030;2023-06-05T12:40:25;102194.63;;;24.59;66.68
71907;BME280;59781;52.090;5.030;2023-06-05T12:42:51;102190.72;;;24.30;66.40
71907;BME280;59781;52.090;5.030;2023-06-05T12:45:16;102190.09;;;24.95;65.46
71907;BME280;59781;52.090;5.030;2023-06-05T12:47:42;102188.75;;;24.85;65.08
71907;BME280;59781;52.090;5.030;2023-06-05T12:50:12;102188.19;;;25.25;64.17
71907;BME280;59781;52.090;5.030;2023-06-05T12:52:38;102197.09;;;25.27;64.70
71907;BME280;59781;52.090;5.030;2023-06-05T12:55:05;102189.56;;;24.19;65.75
71907;BME280;59781;52.090;5.030;2023-06-05T12:57:32;102186.03;;;23.94;67.21
71907;BME280;59781;52.090;5.030;2023-06-05T13:00:05;102176.63;;;25.05;66.05
71907;BME280;59781;52.090;5.030;2023-06-05T13:02:42;102184.00;;;24.93;65.56
71907;BME280;59781;52.090;5.030;2023-06-05T13:05:16;102178.25;;;24.64;64.01
71907;BME280;59781;52.090;5.030;2023-06-05T13:07:42;102178.16;;;24.71;66.16
71907;BME280;59781;52.090;5.030;2023-06-05T13:10:08;102182.22;;;24.68;66.97
71907;BME280;59781;52.090;5.030;2023-06-05T13:12:36;102170.22;;;24.44;65.64
71907;BME280;59781;52.090;5.030;2023-06-05T13:15:02;102174.13;;;24.37;66.03
71907;BME280;59781;52.090;5.030;2023-06-05T13:17:31;102157.16;;;24.21;64.41
71907;BME280;59781;52.090;5.030;2023-06-05T13:19:59;102161.66;;;23.47;67.40
71907;BME280;59781;52.090;5.030;2023-06-05T13:22:25;102152.50;;;23.04;68.54
71907;BME280;59781;52.090;5.030;2023-06-05T13:24:52;102152.19;;;24.12;69.57
71907;BME280;59781;52.090;5.030;2023-06-05T13:27:17;102145.50;;;23.83;69.41